createdAt,value
2019-01-29T00:01:56.667Z,99.90
2019-01-29T00:04:25.763Z,99.90
2019-01-29T00:06:54.883Z,99.90
2019-01-29T00:09:24.070Z,99.90
2019-01-29T00:11:53.195Z,99.90
2019-01-29T00:14:22.300Z,99.90
2019-01-29T00:16:51.407Z,99.90
2019-01-29T00:19:20.506Z,99.90
2019-01-29T00:21:49.610Z,99.90
2019-01-29T00:24:18.719Z,99.90
2019-01-29T00:26:47.822Z,99.90
2019-01-29T00:29:16.918Z,99.90
2019-01-29T00:31:46.034Z,99.90
2019-01-29T00:34:15.127Z,99.90
2019-01-29T00:36:44.308Z,99.90
2019-01-29T00:39:13.395Z,99.90
2019-01-29T00:41:42.515Z,99.90
2019-01-29T00:44:11.619Z,99.90
2019-01-29T00:46:40.730Z,99.90
2019-01-29T00:49:09.831Z,99.90
2019-01-29T00:51:38.938Z,99.90
2019-01-29T00:54:08.038Z,99.90
2019-01-29T00:56:37.145Z,99.90
2019-01-29T00:59:06.244Z,99.90
2019-01-29T01:01:35.355Z,99.90
2019-01-29T01:04:04.526Z,99.90
2019-01-29T01:06:34.623Z,99.90
2019-01-29T01:09:05.424Z,99.90
2019-01-29T01:11:34.519Z,99.90
2019-01-29T01:14:04.602Z,99.90
2019-01-29T01:16:33.706Z,99.90
2019-01-29T01:19:02.814Z,99.90
2019-01-29T01:21:31.916Z,99.90
2019-01-29T01:24:01.037Z,99.90
2019-01-29T01:26:30.129Z,99.90
2019-01-29T01:28:59.237Z,99.90
2019-01-29T01:31:28.339Z,99.90
2019-01-29T01:33:57.452Z,99.90
2019-01-29T01:36:26.547Z,99.90
2019-01-29T01:38:55.663Z,99.90
2019-01-29T01:41:24.865Z,99.90
2019-01-29T01:43:53.978Z,99.90
2019-01-29T01:46:23.077Z,99.90
2019-01-29T01:48:52.186Z,99.90
2019-01-29T01:51:21.282Z,99.90
2019-01-29T01:53:50.395Z,99.90
2019-01-29T01:56:19.498Z,99.90
2019-01-29T01:58:48.628Z,99.90
2019-01-29T02:01:17.714Z,99.90
2019-01-29T02:03:47.039Z,99.90
2019-01-29T02:06:17.869Z,99.90
2019-01-29T02:08:47.001Z,99.90
2019-01-29T02:11:16.192Z,99.90
2019-01-29T02:13:45.417Z,99.90
2019-01-29T02:16:14.570Z,99.90
2019-01-29T02:18:43.679Z,99.90
2019-01-29T02:21:12.774Z,99.90
2019-01-29T02:23:41.883Z,99.90
2019-01-29T02:26:10.977Z,99.90
2019-01-29T02:28:40.094Z,99.90
2019-01-29T02:31:09.270Z,99.90
2019-01-29T02:33:38.595Z,99.90
2019-01-29T02:36:07.697Z,99.90
2019-01-29T02:38:36.799Z,99.90
2019-01-29T02:41:05.908Z,99.90
2019-01-29T02:43:35.150Z,99.90
2019-01-29T02:46:04.311Z,99.90
2019-01-29T02:48:33.413Z,99.90
2019-01-29T02:51:02.662Z,99.90
2019-01-29T02:53:31.807Z,99.90
2019-01-29T02:56:00.957Z,99.90
2019-01-29T02:58:30.053Z,99.90
2019-01-29T03:00:59.166Z,99.90
2019-01-29T03:03:28.266Z,99.90
2019-01-29T03:05:57.378Z,99.90
2019-01-29T03:08:26.494Z,99.90
2019-01-29T03:10:55.602Z,99.90
2019-01-29T03:13:24.717Z,99.90
2019-01-29T03:15:53.827Z,99.90
2019-01-29T03:18:22.931Z,99.90
2019-01-29T03:20:52.032Z,99.90
2019-01-29T03:23:27.276Z,99.90
2019-01-29T03:25:51.939Z,99.90
2019-01-29T03:28:21.037Z,99.90
2019-01-29T03:30:50.160Z,99.90
2019-01-29T03:33:19.377Z,99.90
2019-01-29T03:35:48.545Z,99.90
2019-01-29T03:38:17.911Z,99.90
2019-01-29T03:40:47.051Z,99.90
2019-01-29T03:43:16.172Z,99.90
2019-01-29T03:45:45.313Z,99.90
2019-01-29T03:48:14.438Z,99.90
2019-01-29T03:50:43.533Z,99.90
2019-01-29T03:53:12.633Z,99.90
2019-01-29T03:55:41.743Z,99.90
2019-01-29T03:58:10.838Z,99.90
2019-01-29T04:00:39.943Z,99.90
2019-01-29T04:03:09.103Z,99.90
2019-01-29T04:05:38.227Z,99.90
2019-01-29T04:08:07.323Z,99.90
2019-01-29T04:10:36.443Z,99.90
2019-01-29T04:13:05.542Z,99.90
2019-01-29T04:15:34.664Z,99.90
2019-01-29T04:18:03.774Z,99.90
2019-01-29T04:20:32.882Z,99.90
2019-01-29T04:23:01.999Z,99.90
2019-01-29T04:25:31.087Z,99.90
2019-01-29T04:28:00.200Z,99.90
2019-01-29T04:30:29.311Z,99.90
2019-01-29T04:32:58.422Z,99.90
2019-01-29T04:35:27.544Z,99.90
2019-01-29T04:37:56.637Z,99.90
2019-01-29T04:40:25.742Z,99.90
2019-01-29T04:42:54.855Z,99.90
2019-01-29T04:45:23.959Z,99.90
2019-01-29T04:47:53.193Z,99.90
2019-01-29T04:50:22.290Z,99.90
2019-01-29T04:52:51.399Z,99.90
2019-01-29T04:55:20.502Z,99.90
2019-01-29T04:57:49.639Z,99.90
2019-01-29T05:00:20.874Z,99.90
2019-01-29T05:02:49.987Z,99.90
2019-01-29T05:05:19.449Z,99.90
2019-01-29T05:07:48.614Z,99.90
2019-01-29T05:10:19.047Z,99.90
2019-01-29T05:12:48.174Z,99.90
2019-01-29T05:15:20.202Z,99.90
2019-01-29T05:17:49.313Z,99.90
2019-01-29T05:20:20.926Z,99.90
2019-01-29T05:22:50.031Z,99.90
2019-01-29T05:25:19.127Z,99.90
2019-01-29T05:27:48.241Z,99.90
2019-01-29T05:30:22.339Z,99.90
2019-01-29T05:32:51.442Z,99.90
2019-01-29T05:35:20.541Z,99.90
2019-01-29T05:37:49.648Z,99.90
2019-01-29T05:40:21.443Z,99.90
2019-01-29T05:42:50.646Z,99.90
2019-01-29T05:45:20.987Z,99.90
2019-01-29T05:47:50.086Z,99.90
2019-01-29T05:50:19.183Z,99.90
2019-01-29T05:52:48.289Z,99.90
2019-01-29T05:55:17.382Z,99.90
2019-01-29T05:57:46.562Z,99.90
2019-01-29T06:00:18.675Z,99.90
2019-01-29T06:02:48.689Z,99.90
2019-01-29T06:05:17.965Z,99.90
2019-01-29T06:07:47.078Z,99.90
2019-01-29T06:10:17.115Z,99.90
2019-01-29T06:12:46.228Z,99.90
2019-01-29T06:15:23.591Z,99.90
2019-01-29T06:17:52.702Z,99.90
2019-01-29T06:20:24.607Z,99.90
2019-01-29T06:22:53.703Z,99.90
2019-01-29T06:25:22.884Z,99.90
2019-01-29T06:27:52.098Z,99.90
2019-01-29T06:30:23.767Z,99.90
2019-01-29T06:32:54.491Z,99.90
2019-01-29T06:35:25.219Z,99.90
2019-01-29T06:37:54.324Z,99.90
2019-01-29T06:40:27.349Z,99.90
2019-01-29T06:42:56.487Z,99.90
2019-01-29T06:45:26.550Z,99.90
2019-01-29T06:47:55.668Z,99.90
2019-01-29T06:50:26.402Z,99.90
2019-01-29T06:52:55.782Z,99.90
2019-01-29T06:55:25.513Z,99.90
2019-01-29T06:57:56.013Z,99.90
2019-01-29T07:00:30.678Z,99.90
2019-01-29T07:03:00.620Z,99.90
2019-01-29T07:05:29.712Z,99.90
2019-01-29T07:07:58.835Z,99.90
2019-01-29T07:10:28.068Z,99.90
2019-01-29T07:12:57.179Z,99.90
2019-01-29T07:15:47.727Z,99.90
2019-01-29T07:18:27.176Z,99.90
2019-01-29T07:20:56.271Z,99.90
2019-01-29T07:23:25.384Z,99.90
2019-01-29T07:25:54.489Z,99.90
2019-01-29T07:28:23.615Z,99.90
2019-01-29T07:30:52.715Z,99.90
2019-01-29T07:33:21.815Z,99.90
2019-01-29T07:35:50.951Z,99.90
2019-01-29T07:38:20.059Z,99.90
2019-01-29T07:40:49.172Z,99.90
2019-01-29T07:43:18.270Z,99.90
2019-01-29T07:45:47.373Z,99.90
2019-01-29T07:48:16.475Z,99.90
2019-01-29T07:50:45.589Z,99.90
2019-01-29T07:53:14.699Z,99.90
2019-01-29T07:55:43.790Z,99.90
2019-01-29T07:58:13.939Z,99.90
2019-01-29T08:00:43.042Z,99.90
2019-01-29T08:03:12.149Z,99.90
2019-01-29T08:05:41.251Z,99.90
2019-01-29T08:08:10.351Z,99.90
2019-01-29T08:10:39.469Z,99.90
2019-01-29T08:13:08.571Z,99.90
2019-01-29T08:15:37.695Z,99.90
2019-01-29T08:18:06.863Z,99.90
2019-01-29T08:20:35.977Z,99.90
2019-01-29T08:23:05.068Z,99.90
2019-01-29T08:25:34.185Z,99.90
2019-01-29T08:28:03.354Z,99.90
2019-01-29T08:30:32.467Z,99.90
2019-01-29T08:33:01.579Z,99.90
2019-01-29T08:35:30.699Z,99.90
2019-01-29T08:37:59.802Z,99.90
2019-01-29T08:40:28.915Z,99.90
2019-01-29T08:42:58.014Z,99.90
2019-01-29T08:45:27.181Z,99.90
2019-01-29T08:47:56.295Z,99.90
2019-01-29T08:50:26.447Z,99.90
2019-01-29T08:52:55.547Z,99.90
2019-01-29T08:55:24.657Z,99.90
2019-01-29T08:57:53.759Z,99.90
2019-01-29T09:00:23.239Z,99.90
2019-01-29T09:02:52.354Z,99.90
2019-01-29T09:05:21.471Z,99.90
2019-01-29T09:07:50.600Z,99.90
2019-01-29T09:10:20.751Z,99.90
2019-01-29T09:12:49.873Z,99.90
2019-01-29T09:15:20.483Z,99.90
2019-01-29T09:17:49.583Z,99.90
2019-01-29T09:20:20.226Z,99.90
2019-01-29T09:22:49.331Z,99.90
2019-01-29T09:25:22.566Z,99.90
2019-01-29T09:27:50.830Z,99.90
2019-01-29T09:30:20.470Z,99.90
2019-01-29T09:32:49.579Z,99.90
2019-01-29T09:35:18.683Z,99.90
2019-01-29T09:37:47.795Z,99.90
2019-01-29T09:40:20.153Z,99.90
2019-01-29T09:42:49.279Z,99.90
2019-01-29T09:45:19.546Z,99.90
2019-01-29T09:47:48.699Z,99.90
2019-01-29T09:50:23.898Z,99.90
2019-01-29T09:52:53.204Z,99.90
2019-01-29T09:55:28.886Z,99.90
2019-01-29T09:57:54.144Z,99.90
2019-01-29T10:00:33.845Z,99.90
2019-01-29T10:03:02.959Z,99.90
2019-01-29T10:05:33.035Z,99.90
2019-01-29T10:08:02.255Z,99.90
2019-01-29T10:10:31.350Z,99.90
2019-01-29T10:13:00.458Z,99.90
2019-01-29T10:15:34.566Z,99.90
2019-01-29T10:18:04.248Z,99.90
2019-01-29T10:20:33.347Z,99.90
2019-01-29T10:23:02.589Z,99.90
2019-01-29T10:25:37.518Z,99.90
2019-01-29T10:28:02.606Z,98.90
2019-01-29T10:30:31.702Z,99.30
2019-01-29T10:33:00.843Z,99.60
2019-01-29T10:35:29.951Z,98.90
2019-01-29T10:37:59.058Z,98.70
2019-01-29T10:40:28.270Z,99.10
2019-01-29T10:42:57.932Z,99.40
2019-01-29T10:45:28.870Z,99.70
2019-01-29T10:47:58.003Z,99.50
2019-01-29T10:50:29.601Z,99.50
2019-01-29T10:52:59.083Z,99.60
2019-01-29T10:55:28.187Z,99.90
2019-01-29T10:57:57.468Z,99.80
2019-01-29T11:00:29.323Z,99.60
2019-01-29T11:02:58.428Z,99.30
2019-01-29T11:05:27.527Z,99.60
2019-01-29T11:07:56.638Z,99.40
2019-01-29T11:10:25.734Z,99.70
2019-01-29T11:12:54.847Z,99.40
2019-01-29T11:15:26.947Z,99.80
2019-01-29T11:17:56.124Z,99.60
2019-01-29T11:20:25.218Z,99.70
2019-01-29T11:22:54.573Z,99.60
2019-01-29T11:25:28.748Z,99.80
2019-01-29T11:27:57.861Z,99.80
2019-01-29T11:30:28.799Z,99.60
2019-01-29T11:32:57.911Z,99.70
2019-01-29T11:35:27.013Z,99.80
2019-01-29T11:37:56.198Z,99.90
2019-01-29T11:40:27.429Z,99.80
2019-01-29T11:42:57.720Z,99.80
2019-01-29T11:45:35.412Z,99.90
2019-01-29T11:48:04.527Z,99.90
2019-01-29T11:50:33.626Z,99.90
2019-01-29T11:53:02.758Z,99.70
2019-01-29T11:55:31.855Z,99.70
2019-01-29T11:58:00.983Z,99.50
2019-01-29T12:00:39.719Z,99.30
2019-01-29T12:03:08.830Z,98.80
2019-01-29T12:05:37.923Z,98.60
2019-01-29T12:08:07.994Z,98.40
2019-01-29T12:10:37.210Z,98.00
2019-01-29T12:13:06.325Z,97.90
2019-01-29T12:15:35.427Z,98.00
2019-01-29T12:18:05.167Z,98.30
2019-01-29T12:20:34.281Z,98.10
2019-01-29T12:23:03.390Z,98.20
2019-01-29T12:25:32.531Z,98.20
2019-01-29T12:28:01.635Z,98.30
2019-01-29T12:30:30.742Z,98.30
2019-01-29T12:33:01.688Z,97.80
2019-01-29T12:35:31.770Z,97.90
2019-01-29T12:38:00.863Z,97.00
2019-01-29T12:40:30.958Z,96.90
2019-01-29T12:43:00.047Z,96.60
2019-01-29T12:45:29.154Z,95.40
2019-01-29T12:47:58.262Z,95.00
2019-01-29T12:50:29.888Z,94.70
2019-01-29T12:53:00.634Z,94.30
2019-01-29T12:55:29.734Z,93.90
2019-01-29T12:57:58.838Z,93.70
2019-01-29T13:00:29.658Z,94.60
2019-01-29T13:02:58.756Z,94.30
2019-01-29T13:05:27.871Z,93.40
2019-01-29T13:07:56.970Z,93.10
2019-01-29T13:10:26.454Z,93.10
2019-01-29T13:12:55.550Z,93.60
2019-01-29T13:15:28.164Z,94.40
2019-01-29T13:17:58.902Z,94.70
2019-01-29T13:20:28.027Z,94.10
2019-01-29T13:22:57.127Z,93.60
2019-01-29T13:25:26.242Z,93.80
2019-01-29T13:27:55.338Z,93.80
2019-01-29T13:30:34.939Z,94.20
2019-01-29T13:33:06.656Z,94.30
2019-01-29T13:35:36.695Z,94.80
2019-01-29T13:38:06.749Z,94.50
2019-01-29T13:40:35.923Z,94.50
2019-01-29T13:43:05.659Z,94.50
2019-01-29T13:45:34.776Z,95.00
2019-01-29T13:48:04.243Z,95.10
2019-01-29T13:50:38.604Z,95.00
2019-01-29T13:53:08.774Z,95.30
2019-01-29T13:55:37.894Z,95.80
2019-01-29T13:58:08.126Z,96.20
2019-01-29T14:00:40.667Z,96.30
2019-01-29T14:03:11.975Z,96.30
2019-01-29T14:05:41.076Z,95.00
2019-01-29T14:08:10.180Z,94.10
2019-01-29T14:10:39.282Z,93.30
2019-01-29T14:13:08.383Z,94.30
2019-01-29T14:15:39.136Z,94.20
2019-01-29T14:18:08.508Z,93.80
2019-01-29T14:20:37.611Z,93.20
2019-01-29T14:23:08.047Z,92.80
2019-01-29T14:25:37.150Z,92.70
2019-01-29T14:28:06.319Z,92.10
2019-01-29T14:30:36.495Z,92.10
2019-01-29T14:33:06.544Z,92.20
2019-01-29T14:35:35.659Z,90.90
2019-01-29T14:38:16.743Z,89.80
2019-01-29T14:40:45.851Z,90.30
2019-01-29T14:43:18.289Z,91.30
2019-01-29T14:45:47.400Z,91.20
2019-01-29T14:48:16.495Z,91.50
2019-01-29T14:50:45.627Z,92.00
2019-01-29T14:53:14.734Z,92.70
2019-01-29T14:55:43.848Z,93.30
2019-01-29T14:58:12.947Z,93.90
2019-01-29T15:00:42.058Z,93.60
2019-01-29T15:03:11.409Z,93.60
2019-01-29T15:05:40.753Z,93.40
2019-01-29T15:08:09.932Z,92.80
2019-01-29T15:10:39.127Z,92.90
2019-01-29T15:13:08.293Z,92.20
2019-01-29T15:15:39.523Z,93.10
2019-01-29T15:18:28.539Z,92.90
2019-01-29T15:20:57.659Z,93.00
2019-01-29T15:23:26.755Z,93.00
2019-01-29T15:25:55.876Z,93.70
2019-01-29T15:28:25.056Z,94.10
2019-01-29T15:30:54.160Z,94.40
2019-01-29T15:33:23.259Z,94.60
2019-01-29T15:35:52.372Z,94.80
2019-01-29T15:38:21.572Z,95.20
2019-01-29T15:40:50.758Z,95.40
2019-01-29T15:43:19.918Z,95.70
2019-01-29T15:45:50.729Z,96.00
2019-01-29T15:48:22.639Z,96.10
2019-01-29T15:50:51.747Z,96.30
2019-01-29T15:53:20.881Z,96.50
2019-01-29T15:55:49.979Z,96.80
2019-01-29T15:58:19.097Z,96.90
2019-01-29T16:00:48.204Z,97.00
2019-01-29T16:03:17.318Z,97.30
2019-01-29T16:05:46.420Z,97.40
2019-01-29T16:08:15.530Z,97.60
2019-01-29T16:10:46.070Z,97.70
2019-01-29T16:13:15.191Z,97.90
2019-01-29T16:15:44.303Z,98.30
2019-01-29T16:18:13.997Z,98.20
2019-01-29T16:20:43.103Z,98.40
2019-01-29T16:23:12.213Z,98.50
2019-01-29T16:25:41.316Z,98.60
2019-01-29T16:28:10.423Z,98.80
2019-01-29T16:30:39.695Z,98.90
2019-01-29T16:33:08.821Z,98.90
2019-01-29T16:35:43.208Z,98.90
2019-01-29T16:38:12.382Z,99.10
2019-01-29T16:40:43.418Z,99.20
2019-01-29T16:43:12.547Z,99.30
2019-01-29T16:45:41.651Z,99.40
2019-01-29T16:48:11.159Z,99.50
2019-01-29T16:50:40.257Z,99.60
2019-01-29T16:53:09.641Z,99.90
2019-01-29T16:55:38.743Z,99.80
2019-01-29T16:58:07.852Z,99.80
2019-01-29T17:00:39.294Z,99.80
2019-01-29T17:03:08.475Z,99.90
2019-01-29T17:05:37.583Z,99.80
2019-01-29T17:08:06.709Z,99.90
2019-01-29T17:10:35.825Z,99.90
2019-01-29T17:13:05.465Z,99.90
2019-01-29T17:15:38.240Z,99.90
2019-01-29T17:18:08.182Z,99.90
2019-01-29T17:20:44.650Z,99.90
2019-01-29T17:23:13.770Z,99.90
2019-01-29T17:25:42.875Z,99.90
2019-01-29T17:28:11.978Z,99.90
2019-01-29T17:30:44.944Z,99.70
2019-01-29T17:33:16.392Z,99.40
2019-01-29T17:35:45.715Z,99.30
2019-01-29T17:38:14.883Z,99.30
2019-01-29T17:56:24.263Z,98.70
2019-01-29T17:58:53.384Z,98.60
2019-01-29T18:01:22.523Z,98.60
2019-01-29T18:03:51.651Z,98.50
2019-01-29T18:06:24.102Z,98.40
2019-01-29T18:08:53.273Z,98.50
2019-01-29T18:11:22.403Z,98.60
2019-01-29T18:13:51.534Z,98.60
2019-01-29T18:16:20.632Z,98.80
2019-01-29T18:18:49.748Z,98.80
2019-01-29T18:21:19.034Z,98.80
2019-01-29T18:23:48.257Z,98.90
2019-01-29T18:26:17.387Z,98.80
2019-01-29T18:28:46.547Z,98.90
2019-01-29T18:31:16.475Z,98.90
2019-01-29T18:33:45.599Z,98.90
2019-01-29T18:36:14.710Z,99.00
2019-01-29T18:38:43.882Z,99.10
2019-01-29T18:41:12.983Z,99.10
2019-01-29T18:43:42.168Z,99.30
2019-01-29T18:46:12.472Z,99.40
2019-01-29T18:48:41.597Z,99.80
2019-01-29T18:51:10.708Z,99.90
2019-01-29T18:53:39.976Z,99.90
2019-01-29T18:56:09.122Z,99.90
2019-01-29T18:58:45.409Z,99.90
2019-01-29T19:01:14.530Z,99.90
2019-01-29T19:03:43.648Z,99.90
2019-01-29T19:06:12.749Z,99.90
2019-01-29T19:08:43.277Z,99.90
2019-01-29T19:11:13.593Z,99.90
2019-01-29T19:13:42.692Z,99.90
2019-01-29T19:16:11.911Z,99.90
2019-01-29T19:18:42.922Z,99.90
2019-01-29T19:21:12.034Z,99.90
2019-01-29T19:23:41.161Z,99.90
2019-01-29T19:26:10.315Z,99.90
2019-01-29T19:28:39.449Z,99.90
2019-01-29T20:38:36.717Z,99.90
2019-01-29T20:41:05.895Z,99.90
2019-01-29T20:43:35.094Z,99.80
2019-01-29T20:46:04.223Z,99.80
2019-01-29T20:48:33.323Z,99.70
2019-01-29T20:51:02.431Z,99.60
2019-01-29T20:53:31.536Z,99.60
2019-01-29T20:56:02.270Z,99.50
2019-01-29T20:58:31.376Z,99.50
2019-01-29T21:01:00.495Z,99.40
2019-01-29T21:03:29.595Z,99.30
2019-01-29T21:06:00.355Z,99.10
2019-01-29T21:08:29.475Z,99.40
2019-01-29T21:11:00.220Z,99.10
2019-01-29T21:13:29.322Z,99.00
2019-01-29T21:15:58.452Z,99.00
2019-01-29T21:18:27.587Z,98.80
2019-01-29T21:20:57.389Z,98.80
2019-01-29T21:23:26.796Z,98.90
2019-01-29T21:25:55.932Z,99.10
2019-01-29T21:28:25.111Z,99.00
2019-01-29T21:30:54.207Z,99.00
2019-01-29T21:33:23.331Z,98.90
2019-01-29T21:35:52.452Z,98.60
2019-01-29T21:38:21.587Z,98.60
2019-01-29T21:40:50.722Z,98.60
2019-01-29T21:43:19.827Z,98.60
2019-01-29T21:45:48.928Z,98.40
2019-01-29T21:48:18.148Z,98.40
2019-01-29T21:50:47.263Z,98.50
2019-01-29T21:53:16.384Z,98.60
2019-01-29T21:55:45.498Z,98.60
2019-01-29T21:58:14.605Z,98.60
2019-01-29T22:00:43.703Z,98.60
2019-01-29T22:03:12.827Z,98.70
2019-01-29T22:39:07.324Z,99.90
2019-01-29T22:41:36.503Z,99.90
2019-01-29T22:44:05.623Z,99.90
2019-01-29T22:46:34.727Z,99.90
2019-01-29T22:49:03.851Z,99.90
2019-01-29T22:51:32.970Z,99.90
2019-01-29T22:54:02.100Z,99.90
2019-01-29T22:56:31.211Z,99.90
2019-01-29T22:59:00.327Z,99.90
2019-01-29T23:01:31.376Z,99.90
2019-01-29T23:04:00.754Z,99.90
2019-01-29T23:06:33.228Z,99.90
2019-01-29T23:09:03.219Z,99.90
2019-01-29T23:11:33.964Z,99.90
2019-01-29T23:14:03.059Z,99.90
2019-01-29T23:16:32.160Z,99.90
2019-01-29T23:19:01.280Z,99.90
2019-01-29T23:21:30.376Z,99.90
2019-01-29T23:23:59.486Z,99.80
2019-01-29T23:26:28.667Z,99.70
2019-01-29T23:28:57.859Z,99.60
2019-01-29T23:31:26.958Z,99.60
2019-01-29T23:33:56.075Z,99.70
2019-01-29T23:36:25.191Z,99.90
2019-01-29T23:38:54.302Z,99.90
2019-01-29T23:41:24.480Z,99.90
2019-01-29T23:43:53.588Z,99.90
2019-01-29T23:46:22.694Z,99.90
2019-01-29T23:48:51.838Z,99.90
2019-01-29T23:51:20.938Z,99.90
2019-01-29T23:53:50.063Z,99.90
2019-01-29T23:56:19.159Z,99.90
2019-01-29T23:58:48.290Z,99.70
